Concho, OK (73022)

4:47 AM CST on November 27, 2014 (GMT -0600)
E. Mills and S. Rock Island Ave | Change Station
CLOSE
Current Station
Personal Weather Station
Location: El Reno, OK
Elevation: 1385 ft
Nearby Weather Stations

Elev 1385 ft 35.52 °N, 97.95 °W | Updated 13 minutes ago

Clear
Clear
30.6 °F
Feels Like 27 °F
N
3.8
Wind Variable Wind from South

Today
High -- | Low -- °F
--% Chance of Precip.
Yesterday
High -- | Low -- °F
Precip. -- in
7:19 AM 5:19 PM
Waxing Crescent, 28% visible
Pressure 30.47 in
Visibility -9999.0 miles
Clouds Clear
Windchill 27 °F
Dew Point 22 °F
Humidity 70%
Rainfall 0.00 in
Snow Depth Not available.
UV 0 out of 12
Pollen 3.90 out of 12
Air Quality Not available.
Flu Activity Not available.
METAR KRQO 271035Z AUTO 03007KT CLR M01/M04 A3047 RMK AO2 PWINO

More Conditions Fewer Conditions

Pressure 30.47 in
Visibility -9999.0 miles
Clouds Clear
Windchill 27 °F
Dew Point 22 °F
Humidity 70%
Rainfall 0.00 in
Snow Depth Not available.
UV 0 out of 12
Pollen 3.90 out of 12
Air Quality Not available.
Flu Activity Not available.
METAR KRQO 271035Z AUTO 03007KT CLR M01/M04 A3047 RMK AO2 PWINO

More Conditions Fewer Conditions

10-Day Weather Forecast

Almanac

Astronomy

Nov. 27, 2014 Rise Set
Actual Time
Civil Twilight
Nautical Twilight
Astronomical Twilight
Moon
Length of Visible Light
Length of Day
Tomorrow will be .
, % of the Moon is Illuminated

Today's Extremes

State Highs State Lows

Community

WunderPhotos

Upload Photos

1,773,968 photos uploaded!

WunderBlogs® & News

Nearby

Air Quality

  Air Quality AQ Index Pollutant
Not available.

Snow Depth

Station Depth Elevation

Earthquake Activity

City Distance Mag. Time & Date
Minimum magnitude displayed is 2.5.

Coastal Water Temperatures

Place Temperature

Nearby Weather Stations